createdAt,value
2024-01-16T00:01:06.071Z,5.25
2024-01-16T00:03:12.949Z,4.45
2024-01-16T00:05:14.844Z,4.35
2024-01-16T00:07:16.703Z,4.32
2024-01-16T00:09:18.434Z,5.10
2024-01-16T00:11:20.206Z,4.15
2024-01-16T00:13:21.929Z,4.10
2024-01-16T00:15:23.695Z,4.18
2024-01-16T00:17:25.542Z,5.80
2024-01-16T00:19:28.700Z,4.13
2024-01-16T00:21:30.526Z,4.40
2024-01-16T00:23:33.836Z,4.90
2024-01-16T00:25:35.861Z,4.88
2024-01-16T00:27:37.653Z,5.03
2024-01-16T00:29:39.825Z,4.65
2024-01-16T00:31:41.648Z,4.80
2024-01-16T00:33:43.906Z,4.10
2024-01-16T00:35:45.845Z,4.55
2024-01-16T00:37:47.732Z,4.53
2024-01-16T00:39:49.416Z,5.07
2024-01-16T00:41:51.248Z,3.75
2024-01-16T00:43:53.107Z,4.70
2024-01-16T00:45:55.112Z,4.72
2024-01-16T00:47:57.132Z,5.07
2024-01-16T00:50:01.484Z,5.22
2024-01-16T00:52:03.486Z,4.43
2024-01-16T00:54:07.464Z,5.38
2024-01-16T00:56:09.458Z,4.65
2024-01-16T00:58:11.364Z,4.90
2024-01-16T01:00:13.860Z,4.85
2024-01-16T01:02:16.402Z,5.05
2024-01-16T01:04:18.214Z,4.97
2024-01-16T01:06:20.350Z,4.40
2024-01-16T01:08:22.459Z,4.90
2024-01-16T01:10:24.583Z,5.20
2024-01-16T01:12:26.331Z,4.85
2024-01-16T01:14:30.588Z,5.20
2024-01-16T01:16:33.114Z,5.03
2024-01-16T01:18:35.146Z,4.55
2024-01-16T01:20:36.986Z,4.65
2024-01-16T01:22:38.845Z,5.30
2024-01-16T01:24:40.697Z,4.93
2024-01-16T01:26:45.655Z,4.75
2024-01-16T01:28:47.667Z,4.97
2024-01-16T01:30:49.436Z,5.40
2024-01-16T01:32:51.329Z,5.35
2024-01-16T01:34:53.133Z,4.88
2024-01-16T01:36:55.077Z,5.10
2024-01-16T01:38:56.811Z,4.40
2024-01-16T01:40:58.846Z,4.43
2024-01-16T01:43:27.204Z,4.50
2024-01-16T01:45:28.925Z,4.45
2024-01-16T01:47:32.432Z,4.28
2024-01-16T01:49:34.364Z,4.68
2024-01-16T01:51:36.274Z,3.85
2024-01-16T01:53:39.748Z,4.88
2024-01-16T01:55:42.857Z,4.53
2024-01-16T01:57:44.833Z,4.45
2024-01-16T01:59:47.429Z,4.60
2024-01-16T02:01:51.117Z,4.97
2024-01-16T02:03:53.923Z,3.95
2024-01-16T02:05:57.183Z,4.38
2024-01-16T02:07:59.556Z,4.55
2024-01-16T02:10:01.725Z,4.55
2024-01-16T02:12:03.631Z,5.57
2024-01-16T02:14:05.392Z,5.13
2024-01-16T02:16:17.973Z,5.40
2024-01-16T02:18:19.864Z,5.50
2024-01-16T02:20:22.003Z,4.80
2024-01-16T02:22:30.247Z,5.03
2024-01-16T02:24:32.195Z,5.22
2024-01-16T02:26:34.864Z,4.32
2024-01-16T02:28:36.607Z,4.85
2024-01-16T02:30:38.558Z,5.00
2024-01-16T02:32:40.448Z,4.50
2024-01-16T02:34:42.926Z,4.75
2024-01-16T02:36:44.679Z,5.60
2024-01-16T02:38:46.941Z,4.30
2024-01-16T02:40:48.935Z,4.60
2024-01-16T02:42:50.770Z,5.28
2024-01-16T02:44:52.598Z,4.65
2024-01-16T02:46:54.411Z,4.15
2024-01-16T02:48:56.172Z,4.53
2024-01-16T02:50:57.948Z,5.05
2024-01-16T02:52:59.767Z,3.95
2024-01-16T02:55:01.451Z,4.40
2024-01-16T02:57:03.283Z,4.43
2024-01-16T02:59:05.064Z,5.00
2024-01-16T03:01:16.125Z,4.47
2024-01-16T03:03:18.585Z,4.25
2024-01-16T03:05:20.794Z,4.22
2024-01-16T03:07:22.534Z,5.03
2024-01-16T03:09:24.276Z,4.50
2024-01-16T03:11:26.031Z,4.63
2024-01-16T03:13:27.754Z,4.18
2024-01-16T03:15:31.997Z,5.22
2024-01-16T03:17:33.707Z,4.82
2024-01-16T03:19:35.475Z,4.60
2024-01-16T03:21:37.236Z,4.47
2024-01-16T03:23:38.927Z,4.68
2024-01-16T03:25:40.843Z,4.03
2024-01-16T03:27:42.577Z,4.82
2024-01-16T03:29:44.408Z,4.20
2024-01-16T03:31:46.308Z,4.40
2024-01-16T03:33:48.214Z,4.40
2024-01-16T03:35:50.116Z,4.93
2024-01-16T03:37:51.942Z,4.28
2024-01-16T03:39:55.989Z,4.60
2024-01-16T03:41:58.160Z,4.90
2024-01-16T03:43:59.905Z,4.28
2024-01-16T03:46:01.819Z,4.30
2024-01-16T03:48:04.810Z,4.82
2024-01-16T03:50:07.350Z,3.92
2024-01-16T03:52:09.317Z,4.50
2024-01-16T03:54:11.035Z,3.70
2024-01-16T03:56:13.350Z,3.78
2024-01-16T03:58:15.466Z,4.32
2024-01-16T04:00:17.771Z,4.70
2024-01-16T04:02:19.521Z,5.10
2024-01-16T04:04:21.435Z,4.68
2024-01-16T04:06:23.326Z,3.58
2024-01-16T04:08:25.074Z,4.47
2024-01-16T04:10:26.927Z,4.20
2024-01-16T04:12:28.780Z,3.83
2024-01-16T04:14:30.683Z,4.57
2024-01-16T04:16:32.539Z,4.65
2024-01-16T04:18:38.147Z,3.72
2024-01-16T04:20:39.996Z,4.10
2024-01-16T04:22:42.034Z,4.00
2024-01-16T04:24:43.831Z,5.00
2024-01-16T04:26:46.377Z,3.90
2024-01-16T04:28:49.227Z,4.28
2024-01-16T04:30:51.380Z,3.85
2024-01-16T04:32:53.271Z,4.30
2024-01-16T04:34:55.793Z,3.63
2024-01-16T04:36:57.600Z,4.45
2024-01-16T04:39:04.801Z,4.97
2024-01-16T04:41:06.651Z,6.13
2024-01-16T04:43:08.653Z,3.95
2024-01-16T04:45:14.283Z,4.20
2024-01-16T04:47:16.135Z,3.70
2024-01-16T04:49:17.898Z,4.05
2024-01-16T04:51:19.792Z,4.45
2024-01-16T04:53:21.508Z,5.28
2024-01-16T04:55:23.225Z,4.93
2024-01-16T04:57:24.997Z,4.32
2024-01-16T04:59:26.731Z,4.35
2024-01-16T05:01:28.470Z,3.67
2024-01-16T05:03:30.306Z,5.30
2024-01-16T05:05:32.153Z,4.57
2024-01-16T05:07:34.075Z,4.22
2024-01-16T05:09:35.851Z,4.60
2024-01-16T05:11:37.837Z,4.22
2024-01-16T05:13:39.866Z,4.10
2024-01-16T05:15:42.126Z,4.43
2024-01-16T05:17:43.967Z,4.28
2024-01-16T05:19:46.034Z,4.32
2024-01-16T05:21:47.804Z,4.05
2024-01-16T05:23:49.684Z,4.00
2024-01-16T05:25:51.723Z,4.43
2024-01-16T05:27:53.477Z,3.67
2024-01-16T05:29:55.865Z,3.78
2024-01-16T05:31:57.700Z,4.15
2024-01-16T05:33:59.595Z,3.70
2024-01-16T05:36:01.590Z,3.83
2024-01-16T05:38:04.991Z,4.03
2024-01-16T05:40:09.066Z,3.92
2024-01-16T05:42:12.434Z,4.05
2024-01-16T05:44:14.202Z,3.55
2024-01-16T05:46:16.056Z,4.00
2024-01-16T05:48:18.062Z,4.07
2024-01-16T05:50:24.288Z,3.67
2024-01-16T05:52:26.214Z,3.95
2024-01-16T05:54:28.749Z,3.50
2024-01-16T05:56:32.126Z,3.80
2024-01-16T05:58:38.330Z,4.15
2024-01-16T06:00:40.843Z,4.20
2024-01-16T06:02:42.675Z,3.63
2024-01-16T06:04:44.590Z,3.65
2024-01-16T06:06:49.114Z,3.67
2024-01-16T06:08:51.117Z,3.92
2024-01-16T06:10:52.882Z,3.22
2024-01-16T06:12:54.917Z,4.18
2024-01-16T06:14:56.917Z,3.53
2024-01-16T06:16:58.867Z,4.25
2024-01-16T06:19:05.982Z,3.38
2024-01-16T06:21:07.864Z,3.88
2024-01-16T06:23:09.681Z,3.47
2024-01-16T06:25:11.752Z,3.75
2024-01-16T06:27:20.231Z,3.42
2024-01-16T06:29:31.592Z,3.53
2024-01-16T06:31:36.911Z,3.45
2024-01-16T06:33:39.004Z,3.42
2024-01-16T06:35:41.560Z,3.35
2024-01-16T06:37:44.959Z,4.22
2024-01-16T06:39:46.662Z,3.63
2024-01-16T06:41:48.491Z,3.25
2024-01-16T06:43:50.242Z,3.20
2024-01-16T06:45:52.168Z,3.33
2024-01-16T06:47:54.007Z,3.60
2024-01-16T06:49:55.957Z,3.70
2024-01-16T06:51:58.786Z,3.38
2024-01-16T06:54:00.680Z,3.17
2024-01-16T06:56:02.445Z,3.47
2024-01-16T06:58:04.415Z,3.08
2024-01-16T07:00:10.135Z,3.22
2024-01-16T07:02:11.944Z,3.85
2024-01-16T07:04:15.765Z,4.22
2024-01-16T07:06:20.523Z,3.63
2024-01-16T07:08:22.730Z,3.30
2024-01-16T07:10:25.442Z,3.53
2024-01-16T07:12:28.301Z,3.38
2024-01-16T07:14:30.210Z,3.80
2024-01-16T07:16:32.104Z,3.63
2024-01-16T07:18:34.744Z,3.88
2024-01-16T07:20:40.797Z,3.17
2024-01-16T07:22:42.578Z,3.20
2024-01-16T07:24:49.912Z,3.60
2024-01-16T07:26:51.778Z,3.58
2024-01-16T07:28:53.543Z,3.35
2024-01-16T07:30:55.787Z,3.17
2024-01-16T07:32:57.612Z,3.72
2024-01-16T07:34:59.451Z,3.35
2024-01-16T07:37:01.272Z,3.00
2024-01-16T07:39:05.058Z,3.42
2024-01-16T07:41:07.313Z,3.30
2024-01-16T07:43:09.033Z,3.13
2024-01-16T07:45:11.995Z,3.70
2024-01-16T07:47:13.797Z,3.30
2024-01-16T07:49:15.661Z,3.17
2024-01-16T07:51:17.613Z,3.45
2024-01-16T07:53:19.531Z,3.10
2024-01-16T07:55:24.284Z,3.28
2024-01-16T07:57:26.948Z,3.03
2024-01-16T07:59:28.814Z,3.83
2024-01-16T08:01:31.149Z,4.35
2024-01-16T08:03:33.211Z,3.38
2024-01-16T08:05:35.044Z,3.70
2024-01-16T08:07:36.969Z,3.67
2024-01-16T08:09:38.866Z,2.97
2024-01-16T08:11:41.016Z,3.00
2024-01-16T08:13:42.952Z,3.05
2024-01-16T08:15:44.702Z,3.72
2024-01-16T08:17:46.608Z,3.15
2024-01-16T08:19:48.520Z,3.30
2024-01-16T08:21:50.346Z,2.60
2024-01-16T08:23:53.812Z,4.80
2024-01-16T08:25:55.929Z,3.30
2024-01-16T08:27:57.785Z,2.95
2024-01-16T08:29:59.729Z,3.47
2024-01-16T08:32:01.480Z,3.05
2024-01-16T08:34:03.718Z,3.38
2024-01-16T08:36:05.976Z,3.28
2024-01-16T08:38:07.689Z,3.13
2024-01-16T08:40:17.458Z,3.15
2024-01-16T08:42:19.520Z,3.38
2024-01-16T08:44:21.456Z,5.28
2024-01-16T08:46:24.021Z,4.38
2024-01-16T08:48:26.991Z,3.72
2024-01-16T08:50:30.358Z,3.25
2024-01-16T08:52:32.618Z,3.60
2024-01-16T08:54:34.409Z,4.15
2024-01-16T08:56:36.183Z,5.28
2024-01-16T08:58:39.309Z,3.45
2024-01-16T09:00:46.377Z,4.03
2024-01-16T09:02:49.944Z,3.42
2024-01-16T09:04:53.139Z,3.80
2024-01-16T09:06:55.392Z,4.35
2024-01-16T09:09:04.430Z,3.42
2024-01-16T09:11:06.129Z,3.63
2024-01-16T09:13:08.455Z,4.53
2024-01-16T09:15:10.785Z,3.88
2024-01-16T09:17:12.884Z,3.40
2024-01-16T09:19:15.926Z,3.30
2024-01-16T09:21:17.677Z,3.35
2024-01-16T09:23:19.536Z,3.53
2024-01-16T09:25:22.276Z,3.47
2024-01-16T09:27:24.118Z,3.45
2024-01-16T09:29:25.994Z,3.78
2024-01-16T09:31:27.764Z,4.45
2024-01-16T09:33:29.861Z,4.32
2024-01-16T09:35:32.061Z,4.40
2024-01-16T09:37:33.967Z,3.22
2024-01-16T09:39:37.430Z,3.33
2024-01-16T09:41:39.653Z,2.97
2024-01-16T09:43:42.846Z,3.28
2024-01-16T09:45:45.607Z,3.95
2024-01-16T09:47:53.648Z,3.67
2024-01-16T09:49:57.508Z,3.72
2024-01-16T09:52:03.191Z,3.15
2024-01-16T09:54:09.984Z,3.13
2024-01-16T09:56:25.626Z,3.70
2024-01-16T09:58:30.036Z,3.22
2024-01-16T10:00:32.877Z,3.72
2024-01-16T10:02:35.397Z,3.70
2024-01-16T10:04:38.002Z,2.97
2024-01-16T10:06:40.847Z,2.88
2024-01-16T10:08:42.750Z,2.90
2024-01-16T10:10:49.001Z,4.05
2024-01-16T10:12:52.300Z,2.90
2024-01-16T10:14:55.652Z,3.25
2024-01-16T10:17:01.078Z,2.50
2024-01-16T10:19:09.454Z,2.90
2024-01-16T10:21:33.632Z,3.42
2024-01-16T10:23:35.577Z,2.22
2024-01-16T10:25:38.891Z,2.75
2024-01-16T10:27:41.565Z,2.97
2024-01-16T10:29:58.178Z,3.00
2024-01-16T10:32:00.636Z,3.20
2024-01-16T10:34:04.139Z,2.58
2024-01-16T10:36:18.012Z,3.03
2024-01-16T10:38:23.896Z,2.83
2024-01-16T10:40:27.865Z,2.90
2024-01-16T10:42:30.588Z,2.40
2024-01-16T10:44:33.355Z,2.55
2024-01-16T10:46:36.581Z,2.53
2024-01-16T10:48:39.711Z,3.03
2024-01-16T10:50:42.190Z,2.28
2024-01-16T10:52:55.371Z,2.75
2024-01-16T10:54:58.379Z,2.85
2024-01-16T10:57:00.597Z,2.13
2024-01-16T10:59:17.936Z,2.70
2024-01-16T11:01:19.883Z,2.60
2024-01-16T11:03:31.474Z,2.67
2024-01-16T11:05:34.740Z,2.00
2024-01-16T11:07:37.998Z,2.17
2024-01-16T11:09:41.188Z,2.40
2024-01-16T11:11:46.135Z,2.42
2024-01-16T11:13:48.209Z,2.40
2024-01-16T11:15:50.969Z,2.72
2024-01-16T11:17:54.058Z,2.35
2024-01-16T11:20:07.902Z,2.55
2024-01-16T11:22:20.008Z,3.55
2024-01-16T11:24:22.091Z,2.88
2024-01-16T11:26:37.878Z,3.22
2024-01-16T11:28:39.868Z,3.20
2024-01-16T11:30:44.271Z,2.92
2024-01-16T11:32:46.240Z,2.90
2024-01-16T11:34:53.454Z,3.42
2024-01-16T11:36:56.732Z,3.45
2024-01-16T11:39:12.107Z,3.28
2024-01-16T11:41:50.603Z,3.10
2024-01-16T11:43:52.374Z,3.20
2024-01-16T11:45:56.454Z,2.90
2024-01-16T11:48:15.816Z,4.18
2024-01-16T11:50:29.265Z,3.58
2024-01-16T11:52:45.155Z,2.70
2024-01-16T11:54:47.750Z,3.40
2024-01-16T11:57:01.964Z,3.72
2024-01-16T11:59:41.309Z,3.15
2024-01-16T12:01:46.233Z,3.10
2024-01-16T12:03:48.152Z,3.03
2024-01-16T12:06:03.928Z,2.75
2024-01-16T12:08:07.447Z,3.20
2024-01-16T12:10:10.719Z,3.38
2024-01-16T12:12:16.687Z,3.20
2024-01-16T12:14:18.515Z,2.90
2024-01-16T12:16:20.908Z,2.35
2024-01-16T12:18:30.995Z,2.63
2024-01-16T12:20:41.366Z,2.70
2024-01-16T12:22:43.622Z,2.53
2024-01-16T12:24:46.587Z,3.05
2024-01-16T12:26:48.376Z,2.75
2024-01-16T12:29:03.315Z,2.42
2024-01-16T12:31:06.605Z,2.40
2024-01-16T12:33:14.072Z,2.80
2024-01-16T12:35:22.016Z,2.15
2024-01-16T12:37:23.955Z,2.67
2024-01-16T12:39:25.763Z,2.90
2024-01-16T12:41:36.863Z,2.97
2024-01-16T12:43:43.902Z,2.20
2024-01-16T12:45:46.493Z,3.67
2024-01-16T12:47:55.021Z,2.80
2024-01-16T12:49:56.945Z,2.42
2024-01-16T12:52:19.606Z,2.35
2024-01-16T12:54:23.638Z,2.67
2024-01-16T12:56:37.437Z,2.25
2024-01-16T12:58:41.709Z,2.03
2024-01-16T13:00:48.020Z,2.60
2024-01-16T13:02:54.259Z,3.03
2024-01-16T13:05:01.185Z,2.47
2024-01-16T13:07:04.964Z,2.10
2024-01-16T13:09:21.250Z,2.08
2024-01-16T13:11:35.035Z,2.88
2024-01-16T13:13:41.945Z,2.92
2024-01-16T13:15:45.546Z,2.70
2024-01-16T13:17:49.269Z,2.58
2024-01-16T13:19:52.039Z,2.42
2024-01-16T13:21:56.805Z,2.33
2024-01-16T13:23:58.512Z,2.08
2024-01-16T13:26:00.757Z,2.67
2024-01-16T13:28:04.016Z,2.10
2024-01-16T13:30:07.290Z,2.45
2024-01-16T13:32:09.109Z,2.42
2024-01-16T13:34:10.945Z,2.88
2024-01-16T13:36:13.163Z,2.00
2024-01-16T13:38:18.539Z,2.78
2024-01-16T13:40:28.362Z,2.47
2024-01-16T13:42:30.272Z,2.05
2024-01-16T13:44:32.398Z,2.88
2024-01-16T13:46:49.355Z,2.00
2024-01-16T13:49:06.561Z,2.72
2024-01-16T13:51:08.675Z,2.88
2024-01-16T13:53:10.502Z,2.28
2024-01-16T13:55:12.604Z,2.53
2024-01-16T13:57:14.589Z,2.65
2024-01-16T13:59:16.393Z,2.22
2024-01-16T14:01:18.219Z,3.42
2024-01-16T14:03:21.064Z,2.60
2024-01-16T14:05:23.029Z,2.42
2024-01-16T14:07:24.911Z,2.47
2024-01-16T14:09:26.618Z,2.72
2024-01-16T14:11:28.328Z,2.75
2024-01-16T14:13:31.082Z,2.83
2024-01-16T14:15:32.853Z,2.97
2024-01-16T14:17:35.259Z,3.10
2024-01-16T14:19:38.002Z,2.95
2024-01-16T14:21:39.720Z,2.70
2024-01-16T14:23:41.522Z,2.83
2024-01-16T14:25:43.454Z,3.03
2024-01-16T14:27:46.910Z,3.78
2024-01-16T14:29:48.777Z,2.88
2024-01-16T14:31:51.059Z,3.55
2024-01-16T14:33:52.959Z,3.33
2024-01-16T14:35:56.196Z,3.78
2024-01-16T14:37:58.135Z,3.30
2024-01-16T14:40:03.291Z,3.22
2024-01-16T14:42:05.458Z,3.38
2024-01-16T14:44:10.845Z,3.55
2024-01-16T14:46:12.810Z,4.20
2024-01-16T14:48:17.438Z,3.47
2024-01-16T14:50:29.277Z,3.78
2024-01-16T14:52:34.875Z,4.53
2024-01-16T14:54:36.598Z,4.40
2024-01-16T14:56:38.812Z,5.30
2024-01-16T14:58:40.704Z,4.45
2024-01-16T15:00:47.507Z,4.80
2024-01-16T15:02:49.532Z,4.70
2024-01-16T15:04:51.318Z,3.85
2024-01-16T15:06:54.461Z,4.47
2024-01-16T15:08:59.644Z,3.95
2024-01-16T15:11:01.440Z,4.60
2024-01-16T15:13:03.269Z,3.63
2024-01-16T15:15:06.914Z,3.95
2024-01-16T15:17:08.848Z,4.00
2024-01-16T15:19:11.232Z,5.68
2024-01-16T15:21:13.061Z,4.45
2024-01-16T15:23:15.037Z,3.92
2024-01-16T15:25:17.926Z,3.55
2024-01-16T15:27:21.239Z,3.53
2024-01-16T15:29:27.716Z,3.92
2024-01-16T15:31:29.498Z,4.05
2024-01-16T15:33:31.220Z,4.00
2024-01-16T15:35:33.377Z,3.88
2024-01-16T15:37:36.052Z,3.72
2024-01-16T15:39:37.697Z,3.83
2024-01-16T15:41:39.909Z,2.85
2024-01-16T15:43:41.788Z,2.42
2024-01-16T15:45:44.195Z,3.13
2024-01-16T15:47:49.598Z,2.92
2024-01-16T15:49:57.691Z,2.63
2024-01-16T15:52:03.276Z,3.10
2024-01-16T15:54:12.465Z,2.65
2024-01-16T15:56:31.109Z,2.45
2024-01-16T15:58:47.650Z,2.63
2024-01-16T16:00:52.424Z,2.60
2024-01-16T16:02:54.584Z,2.80
2024-01-16T16:04:56.675Z,2.60
2024-01-16T16:06:58.577Z,2.58
2024-01-16T16:09:01.028Z,2.70
2024-01-16T16:11:03.144Z,2.70
2024-01-16T16:13:05.598Z,3.25
2024-01-16T16:15:07.545Z,3.00
2024-01-16T16:17:09.946Z,3.13
2024-01-16T16:19:12.518Z,3.65
2024-01-16T16:21:15.266Z,4.00
2024-01-16T16:23:17.318Z,3.13
2024-01-16T16:25:19.121Z,2.92
2024-01-16T16:27:27.865Z,2.60
2024-01-16T16:29:29.838Z,3.25
2024-01-16T16:31:32.433Z,3.45
2024-01-16T16:33:34.473Z,3.05
2024-01-16T16:35:36.276Z,3.08
2024-01-16T16:37:38.209Z,2.70
2024-01-16T16:39:40.837Z,2.28
2024-01-16T16:41:42.705Z,2.90
2024-01-16T16:43:44.703Z,2.80
2024-01-16T16:45:46.843Z,2.35
2024-01-16T16:47:48.700Z,2.33
2024-01-16T16:49:50.436Z,2.17
2024-01-16T16:51:52.625Z,2.88
2024-01-16T16:53:55.511Z,3.25
2024-01-16T16:55:57.487Z,2.28
2024-01-16T16:57:59.974Z,2.72
2024-01-16T17:00:01.953Z,2.88
2024-01-16T17:02:05.208Z,2.92
2024-01-16T17:04:07.964Z,2.40
2024-01-16T17:06:10.177Z,3.08
2024-01-16T17:08:13.175Z,2.38
2024-01-16T17:10:22.631Z,2.95
2024-01-16T17:12:24.421Z,2.15
2024-01-16T17:14:26.527Z,2.50
2024-01-16T17:16:29.699Z,2.50
2024-01-16T17:18:36.994Z,3.00
2024-01-16T17:20:39.064Z,2.40
2024-01-16T17:22:41.625Z,3.05
2024-01-16T17:24:44.277Z,2.15
2024-01-16T17:26:46.511Z,2.60
2024-01-16T17:28:48.251Z,2.70
2024-01-16T17:30:56.942Z,2.95
2024-01-16T17:32:58.979Z,2.78
2024-01-16T17:35:00.832Z,3.00
2024-01-16T17:37:02.574Z,2.42
2024-01-16T17:39:10.329Z,2.35
2024-01-16T17:41:12.512Z,2.53
2024-01-16T17:43:14.344Z,2.65
2024-01-16T17:45:16.856Z,2.10
2024-01-16T17:47:19.131Z,2.75
2024-01-16T17:49:21.536Z,3.08
2024-01-16T17:51:24.705Z,2.42
2024-01-16T17:53:29.146Z,2.15
2024-01-16T17:55:34.232Z,1.80
2024-01-16T17:57:39.260Z,3.08
2024-01-16T17:59:44.127Z,2.20
2024-01-16T18:01:47.950Z,2.20
2024-01-16T18:03:49.895Z,2.58
2024-01-16T18:05:51.628Z,2.25
2024-01-16T18:07:53.474Z,2.53
2024-01-16T18:09:55.392Z,2.65
2024-01-16T18:11:58.899Z,2.15
2024-01-16T18:14:00.755Z,2.13
2024-01-16T18:16:06.246Z,2.45
2024-01-16T18:18:11.080Z,2.58
2024-01-16T18:20:21.913Z,2.40
2024-01-16T18:24:26.018Z,2.75
2024-01-16T18:26:31.256Z,2.38
2024-01-16T18:28:33.342Z,2.20
2024-01-16T18:30:36.083Z,2.78
2024-01-16T18:32:48.223Z,3.08
2024-01-16T18:34:52.810Z,2.78
2024-01-16T18:36:55.379Z,2.97
2024-01-16T18:39:05.613Z,2.53
2024-01-16T18:41:25.606Z,2.75
2024-01-16T18:43:29.158Z,2.40
2024-01-16T18:45:31.108Z,2.58
2024-01-16T18:47:33.231Z,2.63
2024-01-16T18:49:35.134Z,3.10
2024-01-16T18:51:36.893Z,2.75
2024-01-16T18:53:40.304Z,3.55
2024-01-16T18:55:42.067Z,3.15
2024-01-16T18:57:44.183Z,2.72
2024-01-16T18:59:49.114Z,2.92
2024-01-16T19:01:51.351Z,2.75
2024-01-16T19:03:53.119Z,3.13
2024-01-16T19:05:57.700Z,3.13
2024-01-16T19:07:59.724Z,2.92
2024-01-16T19:10:03.104Z,2.58
2024-01-16T19:12:07.245Z,2.33
2024-01-16T19:14:09.142Z,2.58
2024-01-16T19:16:12.564Z,2.33
2024-01-16T19:18:14.444Z,2.65
2024-01-16T19:20:19.637Z,2.58
2024-01-16T19:22:21.478Z,1.75
2024-01-16T19:24:23.558Z,2.10
2024-01-16T19:26:25.363Z,1.90
2024-01-16T19:28:32.926Z,2.33
2024-01-16T19:30:35.131Z,2.08
2024-01-16T19:32:36.815Z,2.40
2024-01-16T19:34:38.563Z,1.65
2024-01-16T19:36:43.439Z,1.60
2024-01-16T19:38:45.278Z,1.77
2024-01-16T19:40:47.297Z,1.75
2024-01-16T19:42:49.004Z,3.00
2024-01-16T19:44:51.510Z,2.00
2024-01-16T19:46:54.330Z,2.55
2024-01-16T19:48:56.418Z,2.13
2024-01-16T19:50:58.347Z,1.90
2024-01-16T19:53:00.812Z,2.25
2024-01-16T19:55:06.675Z,1.80
2024-01-16T19:57:08.578Z,1.70
2024-01-16T19:59:11.588Z,2.33
2024-01-16T20:01:13.863Z,2.25
2024-01-16T20:03:16.235Z,1.35
2024-01-16T20:05:18.590Z,1.13
2024-01-16T20:07:20.559Z,1.80
2024-01-16T20:09:22.867Z,1.30
2024-01-16T20:11:32.602Z,1.60
2024-01-16T20:13:34.404Z,1.40
2024-01-16T20:15:36.184Z,1.63
2024-01-16T20:17:38.118Z,1.80
2024-01-16T20:19:40.860Z,1.10
2024-01-16T20:21:45.549Z,2.03
2024-01-16T20:23:47.249Z,2.10
2024-01-16T20:25:49.094Z,1.90
2024-01-16T20:27:52.624Z,1.40
2024-01-16T20:29:54.379Z,1.52
2024-01-16T20:31:57.435Z,1.42
2024-01-16T20:33:59.393Z,1.67
2024-01-16T20:36:01.732Z,1.92
2024-01-16T20:38:03.580Z,1.25
2024-01-16T20:40:06.271Z,1.33
2024-01-16T20:42:11.212Z,1.38
2024-01-16T20:44:16.209Z,1.80
2024-01-16T20:46:17.973Z,1.33
2024-01-16T20:48:19.709Z,1.42
2024-01-16T20:50:22.984Z,1.50
2024-01-16T20:52:24.835Z,2.42
2024-01-16T20:54:27.458Z,2.08
2024-01-16T20:56:29.143Z,1.95
2024-01-16T20:58:30.878Z,1.70
2024-01-16T21:00:35.249Z,2.00
2024-01-16T21:02:37.146Z,2.75
2024-01-16T21:04:38.918Z,2.33
2024-01-16T21:06:42.290Z,2.10
2024-01-16T21:08:44.248Z,1.75
2024-01-16T21:10:46.005Z,1.85
2024-01-16T21:12:47.903Z,1.50
2024-01-16T21:14:50.592Z,1.52
2024-01-16T21:16:53.070Z,1.60
2024-01-16T21:18:58.613Z,2.10
2024-01-16T21:21:01.036Z,1.80
2024-01-16T21:23:02.865Z,1.98
2024-01-16T21:25:06.558Z,1.92
2024-01-16T21:27:08.340Z,1.92
2024-01-16T21:29:10.096Z,2.28
2024-01-16T21:31:11.883Z,1.95
2024-01-16T21:33:15.271Z,2.22
2024-01-16T21:35:19.723Z,2.22
2024-01-16T21:37:21.937Z,2.63
2024-01-16T21:39:23.658Z,1.98
2024-01-16T21:41:27.471Z,1.60
2024-01-16T21:43:29.364Z,1.65
2024-01-16T21:45:31.292Z,2.95
2024-01-16T21:47:34.228Z,1.70
2024-01-16T21:49:36.143Z,2.10
2024-01-16T21:51:38.204Z,1.40
2024-01-16T21:53:40.346Z,1.67
2024-01-16T21:55:42.767Z,1.75
2024-01-16T21:57:45.622Z,2.10
2024-01-16T21:59:47.986Z,2.22
2024-01-16T22:01:51.603Z,1.98
2024-01-16T22:03:53.637Z,1.83
2024-01-16T22:05:58.251Z,2.05
2024-01-16T22:08:00.518Z,1.80
2024-01-16T22:10:02.187Z,1.88
2024-01-16T22:12:04.647Z,1.30
2024-01-16T22:14:08.680Z,1.23
2024-01-16T22:16:12.351Z,1.50
2024-01-16T22:18:14.207Z,1.50
2024-01-16T22:20:17.549Z,1.65
2024-01-16T22:22:19.194Z,1.70
2024-01-16T22:24:22.376Z,1.30
2024-01-16T22:26:24.106Z,1.23
2024-01-16T22:28:25.763Z,1.52
2024-01-16T22:30:27.665Z,1.23
2024-01-16T22:32:30.458Z,1.20
2024-01-16T22:34:32.951Z,1.45
2024-01-16T22:36:38.892Z,1.52
2024-01-16T22:38:43.838Z,1.70
2024-01-16T22:40:45.958Z,1.20
2024-01-16T22:42:50.607Z,1.40
2024-01-16T22:44:52.281Z,1.58
2024-01-16T22:46:59.830Z,1.05
2024-01-16T22:49:01.772Z,2.30
2024-01-16T22:51:03.828Z,2.80
2024-01-16T22:53:05.793Z,1.90
2024-01-16T22:55:07.926Z,1.60
2024-01-16T22:57:09.744Z,1.80
2024-01-16T22:59:11.518Z,1.65
2024-01-16T23:01:15.876Z,2.35
2024-01-16T23:03:17.799Z,1.98
2024-01-16T23:05:21.220Z,1.98
2024-01-16T23:07:23.043Z,2.40
2024-01-16T23:09:26.449Z,2.20
2024-01-16T23:11:28.590Z,2.42
2024-01-16T23:13:31.328Z,2.33
2024-01-16T23:15:33.062Z,1.75
2024-01-16T23:17:35.212Z,2.90
2024-01-16T23:19:37.045Z,2.78
2024-01-16T23:21:39.452Z,2.55
2024-01-16T23:23:45.024Z,2.63
2024-01-16T23:25:47.267Z,2.95
2024-01-16T23:27:51.072Z,3.33
2024-01-16T23:29:52.915Z,4.22
2024-01-16T23:31:54.618Z,5.00
2024-01-16T23:33:56.422Z,5.28
2024-01-16T23:35:58.641Z,4.97
2024-01-16T23:38:01.409Z,5.05
2024-01-16T23:40:06.079Z,5.13
2024-01-16T23:42:15.045Z,5.53
2024-01-16T23:44:17.144Z,6.20
2024-01-16T23:46:20.668Z,5.47
2024-01-16T23:48:22.505Z,5.43
2024-01-16T23:50:25.267Z,4.22
2024-01-16T23:52:27.078Z,4.30
2024-01-16T23:54:28.909Z,3.60
2024-01-16T23:56:30.756Z,3.58
2024-01-16T23:58:32.501Z,3.72
